createdAt,value
2019-04-16T00:02:11.824Z,67.60
2019-04-16T00:04:53.722Z,67.50
2019-04-16T00:07:35.259Z,67.70
2019-04-16T00:10:09.324Z,67.60
2019-04-16T00:12:56.490Z,67.50
2019-04-16T00:15:27.329Z,68.10
2019-04-16T00:17:57.603Z,68.10
2019-04-16T00:20:27.908Z,68.00
2019-04-16T00:23:02.377Z,68.20
2019-04-16T00:25:32.671Z,68.60
2019-04-16T00:28:03.262Z,68.40
2019-04-16T00:30:35.664Z,68.10
2019-04-16T00:33:07.590Z,68.50
2019-04-16T00:35:38.189Z,69.00
2019-04-16T00:38:08.489Z,68.60
2019-04-16T00:40:38.770Z,68.30
2019-04-16T00:43:09.076Z,68.70
2019-04-16T00:45:39.358Z,68.70
2019-04-16T00:48:09.919Z,68.60
2019-04-16T00:50:40.199Z,68.60
2019-04-16T00:53:10.874Z,68.60
2019-04-16T00:55:42.283Z,68.50
2019-04-16T00:58:13.473Z,68.80
2019-04-16T01:00:43.752Z,68.70
2019-04-16T01:03:14.038Z,68.60
2019-04-16T01:05:44.645Z,68.70
2019-04-16T01:08:14.922Z,68.60
2019-04-16T01:10:45.947Z,68.50
2019-04-16T01:13:16.227Z,69.00
2019-04-16T01:15:46.585Z,68.20
2019-04-16T01:18:16.874Z,68.00
2019-04-16T01:20:47.155Z,68.60
2019-04-16T01:23:18.392Z,68.40
2019-04-16T01:25:48.713Z,68.20
2019-04-16T01:28:23.927Z,68.30
2019-04-16T01:31:08.148Z,69.00
2019-04-16T01:33:38.511Z,68.80
2019-04-16T01:36:26.600Z,69.40
2019-04-16T01:39:14.735Z,69.10
2019-04-16T01:41:30.868Z,68.70
2019-04-16T01:44:01.151Z,69.50
2019-04-16T01:46:32.890Z,68.70
2019-04-16T01:49:03.450Z,68.40
2019-04-16T01:51:33.744Z,68.50
2019-04-16T01:54:04.033Z,68.80
2019-04-16T01:56:34.558Z,69.00
2019-04-16T01:59:06.125Z,69.10
2019-04-16T02:01:36.842Z,68.80
2019-04-16T02:04:07.237Z,69.10
2019-04-16T02:06:37.476Z,68.60
2019-04-16T02:09:16.057Z,68.60
2019-04-16T02:11:41.482Z,68.50
2019-04-16T02:14:14.512Z,68.20
2019-04-16T02:16:44.501Z,68.30
2019-04-16T02:19:15.558Z,68.00
2019-04-16T02:21:45.842Z,68.20
2019-04-16T02:24:18.697Z,68.50
2019-04-16T02:26:48.220Z,68.00
2019-04-16T02:29:18.488Z,68.30
2019-04-16T02:31:51.510Z,68.30
2019-04-16T02:34:20.826Z,68.40
2019-04-16T02:36:51.421Z,68.30
2019-04-16T02:39:25.746Z,68.20
2019-04-16T02:41:58.275Z,68.30
2019-04-16T02:44:26.189Z,68.40
2019-04-16T02:46:56.454Z,68.60
2019-04-16T02:49:26.736Z,68.40
2019-04-16T02:52:01.470Z,68.50
2019-04-16T02:54:39.000Z,68.60
2019-04-16T02:57:26.686Z,69.00
2019-04-16T02:59:55.912Z,68.70
2019-04-16T03:02:44.124Z,68.60
2019-04-16T03:05:16.037Z,68.60
2019-04-16T03:07:46.315Z,68.60
2019-04-16T03:10:16.580Z,68.70
2019-04-16T03:12:51.868Z,68.60
2019-04-16T03:15:20.774Z,68.80
2019-04-16T03:17:51.049Z,69.20
2019-04-16T03:20:24.013Z,68.50
2019-04-16T03:22:53.284Z,68.70
2019-04-16T03:25:23.552Z,68.50
2019-04-16T03:27:54.486Z,68.70
2019-04-16T03:30:25.266Z,68.30
2019-04-16T03:32:55.559Z,68.20
2019-04-16T03:35:26.841Z,68.00
2019-04-16T03:37:57.475Z,68.20
2019-04-16T03:40:27.734Z,68.20
2019-04-16T03:42:59.272Z,68.40
2019-04-16T03:45:30.401Z,68.40
2019-04-16T03:48:00.671Z,68.40
2019-04-16T03:50:32.122Z,68.30
2019-04-16T03:53:02.427Z,68.50
2019-04-16T03:55:32.709Z,68.40
2019-04-16T03:58:06.267Z,68.40
2019-04-16T04:00:35.207Z,68.20
2019-04-16T04:03:05.471Z,68.10
2019-04-16T04:05:36.060Z,68.10
2019-04-16T04:08:06.328Z,68.20
2019-04-16T04:10:37.771Z,68.30
2019-04-16T04:13:08.254Z,68.20
2019-04-16T04:15:38.541Z,68.40
2019-04-16T04:18:11.645Z,68.50
2019-04-16T04:20:41.081Z,68.00
2019-04-16T04:23:11.429Z,68.80
2019-04-16T04:25:42.064Z,68.40
2019-04-16T04:28:12.331Z,68.60
2019-04-16T04:30:42.997Z,68.40
2019-04-16T04:33:15.120Z,68.90
2019-04-16T04:35:45.319Z,68.30
2019-04-16T04:38:16.175Z,68.30
2019-04-16T04:40:50.291Z,68.20
2019-04-16T04:43:18.407Z,68.40
2019-04-16T04:45:48.674Z,67.90
2019-04-16T04:48:23.003Z,68.10
2019-04-16T04:50:51.288Z,68.20
2019-04-16T04:53:21.553Z,68.80
2019-04-16T04:55:54.464Z,68.00
2019-04-16T04:58:24.144Z,68.00
2019-04-16T05:00:54.421Z,68.30
2019-04-16T05:03:32.063Z,68.50
2019-04-16T05:06:07.160Z,68.60
2019-04-16T05:08:37.727Z,69.20
2019-04-16T05:11:08.000Z,68.40
2019-04-16T05:13:38.275Z,67.70
2019-04-16T05:16:08.553Z,68.00
2019-04-16T05:18:41.898Z,68.20
2019-04-16T05:21:10.787Z,68.10
2019-04-16T05:23:41.085Z,68.20
2019-04-16T05:26:11.635Z,69.30
2019-04-16T05:28:45.424Z,70.60
2019-04-16T05:31:13.883Z,70.00
2019-04-16T05:33:44.179Z,71.00
2019-04-16T05:36:15.431Z,71.70
2019-04-16T05:38:45.925Z,71.70
2019-04-16T05:41:20.378Z,72.80
2019-04-16T05:43:48.180Z,72.40
2019-04-16T05:46:18.449Z,72.90
2019-04-16T05:48:51.382Z,71.90
2019-04-16T05:51:20.934Z,72.60
2019-04-16T05:53:52.846Z,72.60
2019-04-16T05:56:24.956Z,71.00
2019-04-16T05:58:55.519Z,68.80
2019-04-16T06:01:33.222Z,67.70
2019-04-16T06:04:03.812Z,68.90
2019-04-16T06:06:34.106Z,67.40
2019-04-16T06:09:11.882Z,67.00
2019-04-16T06:11:39.516Z,66.20
2019-04-16T06:14:30.463Z,65.10
2019-04-16T06:17:05.092Z,65.50
2019-04-16T06:19:46.783Z,64.20
2019-04-16T06:22:37.462Z,64.10
2019-04-16T06:25:25.381Z,63.20
2019-04-16T06:28:09.478Z,63.80
2019-04-16T06:30:43.992Z,62.80
2019-04-16T06:33:19.001Z,62.60
2019-04-16T06:35:54.006Z,62.50
2019-04-16T06:38:26.134Z,62.20
2019-04-16T06:41:03.087Z,63.10
2019-04-16T06:43:48.151Z,61.60
2019-04-16T06:46:20.065Z,63.30
2019-04-16T06:48:52.010Z,62.30
2019-04-16T06:51:43.819Z,62.00
2019-04-16T06:54:25.398Z,62.20
2019-04-16T06:57:02.639Z,63.10
2019-04-16T06:59:34.554Z,61.60
2019-04-16T07:02:15.763Z,62.00
2019-04-16T07:04:47.687Z,62.40
2019-04-16T07:07:40.156Z,62.50
2019-04-16T07:10:14.607Z,62.40
2019-04-16T07:12:49.423Z,61.10
2019-04-16T07:15:24.392Z,59.30
2019-04-16T07:17:51.846Z,58.80
2019-04-16T07:20:22.373Z,58.40
2019-04-16T07:22:53.555Z,60.20
2019-04-16T07:25:27.422Z,59.70
2019-04-16T07:27:58.599Z,60.50
2019-04-16T07:30:38.661Z,58.20
2019-04-16T07:33:07.190Z,59.90
2019-04-16T07:35:48.236Z,58.40
2019-04-16T07:38:23.058Z,59.50
2019-04-16T07:41:00.886Z,58.20
2019-04-16T07:43:38.558Z,59.90
2019-04-16T07:46:28.767Z,59.40
2019-04-16T07:49:00.705Z,58.00
2019-04-16T07:51:35.789Z,55.90
2019-04-16T07:54:09.339Z,55.80
2019-04-16T07:56:41.928Z,58.40
2019-04-16T07:59:12.434Z,59.60
2019-04-16T08:01:44.008Z,59.20
2019-04-16T08:04:23.207Z,57.00
2019-04-16T08:06:47.406Z,57.90
2019-04-16T08:09:17.715Z,56.80
2019-04-16T08:11:48.049Z,57.30
2019-04-16T08:14:18.896Z,58.00
2019-04-16T08:16:49.203Z,59.70
2019-04-16T08:19:19.488Z,58.10
2019-04-16T08:21:49.813Z,57.10
2019-04-16T08:24:27.450Z,58.60
2019-04-16T08:26:57.949Z,58.20
2019-04-16T08:29:28.231Z,59.70
2019-04-16T08:31:58.544Z,57.00
2019-04-16T08:34:28.852Z,57.00
2019-04-16T08:36:59.140Z,56.60
2019-04-16T08:39:29.423Z,56.80
2019-04-16T08:41:59.976Z,55.50
2019-04-16T08:44:35.317Z,55.00
2019-04-16T08:47:02.513Z,56.50
2019-04-16T08:49:32.795Z,54.90
2019-04-16T08:52:03.093Z,55.80
2019-04-16T08:54:33.382Z,55.50
2019-04-16T08:57:03.990Z,55.80
2019-04-16T08:59:35.403Z,56.20
2019-04-16T09:02:05.706Z,54.50
2019-04-16T09:04:36.003Z,55.00
2019-04-16T09:07:11.968Z,55.00
2019-04-16T09:09:40.212Z,55.00
2019-04-16T09:12:10.505Z,54.70
2019-04-16T09:14:42.708Z,54.40
2019-04-16T09:17:14.651Z,53.40
2019-04-16T09:19:46.575Z,54.00
2019-04-16T09:22:17.204Z,53.40
2019-04-16T09:24:52.399Z,51.40
2019-04-16T09:27:28.546Z,53.00
2019-04-16T09:30:09.870Z,52.10
2019-04-16T09:32:40.682Z,52.10
2019-04-16T09:35:24.624Z,52.20
2019-04-16T09:37:56.789Z,52.20
2019-04-16T09:40:31.401Z,51.10
2019-04-16T09:43:16.146Z,50.80
2019-04-16T09:45:37.188Z,51.40
2019-04-16T09:48:07.615Z,51.90
2019-04-16T09:50:43.100Z,49.60
2019-04-16T09:53:09.881Z,50.40
2019-04-16T09:55:40.170Z,50.00
2019-04-16T09:58:12.106Z,49.80
2019-04-16T10:00:47.005Z,49.30
2019-04-16T10:03:17.251Z,47.80
2019-04-16T10:05:47.396Z,46.40
2019-04-16T10:08:17.687Z,47.00
2019-04-16T10:10:48.015Z,46.90
2019-04-16T10:13:29.996Z,46.90
2019-04-16T10:15:50.315Z,46.60
2019-04-16T10:18:20.826Z,46.90
2019-04-16T10:20:51.081Z,47.10
2019-04-16T10:23:32.243Z,47.30
2019-04-16T10:26:02.892Z,44.60
2019-04-16T10:28:43.868Z,46.80
2019-04-16T10:31:15.780Z,45.90
2019-04-16T10:33:46.082Z,45.50
2019-04-16T10:36:16.345Z,44.50
2019-04-16T10:39:04.639Z,44.30
2019-04-16T10:41:56.388Z,45.00
2019-04-16T10:44:29.038Z,46.70
2019-04-16T10:47:03.927Z,45.00
2019-04-16T10:49:44.809Z,46.60
2019-04-16T10:52:32.857Z,43.70
2019-04-16T10:55:20.966Z,42.80
2019-04-16T10:57:55.404Z,42.00
2019-04-16T11:00:29.988Z,42.40
2019-04-16T11:03:11.126Z,42.20
2019-04-16T11:05:43.279Z,41.50
2019-04-16T11:08:13.609Z,40.80
2019-04-16T11:10:43.998Z,38.90
2019-04-16T11:13:27.919Z,38.00
2019-04-16T11:15:59.860Z,39.80
2019-04-16T11:18:30.143Z,38.00
2019-04-16T11:21:00.945Z,38.00
2019-04-16T11:23:31.215Z,36.60
2019-04-16T11:26:01.487Z,37.80
2019-04-16T11:28:31.791Z,36.90
2019-04-16T11:31:03.706Z,36.40
2019-04-16T11:33:33.998Z,36.30
2019-04-16T11:36:17.759Z,35.80
2019-04-16T11:38:36.571Z,36.70
2019-04-16T11:41:06.972Z,36.60
2019-04-16T11:43:37.604Z,36.30
2019-04-16T11:46:07.974Z,37.60
2019-04-16T11:48:38.402Z,38.50
2019-04-16T11:51:08.708Z,37.50
2019-04-16T11:53:38.987Z,39.30
2019-04-16T11:56:09.242Z,38.40
2019-04-16T11:58:41.865Z,36.90
2019-04-16T12:01:13.834Z,36.80
2019-04-16T12:04:03.252Z,36.30
2019-04-16T12:09:34.681Z,36.30
2019-04-16T12:12:15.819Z,36.30
2019-04-16T12:15:00.000Z,37.20
2019-04-16T12:17:47.849Z,36.40
2019-04-16T12:20:22.707Z,36.60
2019-04-16T12:23:06.669Z,35.20
2019-04-16T12:25:38.586Z,33.90
2019-04-16T12:28:25.792Z,33.50
2019-04-16T12:31:16.846Z,34.00
2019-04-16T12:33:51.875Z,34.10
2019-04-16T12:36:40.531Z,33.90
2019-04-16T12:39:21.146Z,35.50
2019-04-16T12:42:00.167Z,35.70
2019-04-16T12:44:45.706Z,36.10
2019-04-16T12:47:15.335Z,37.20
2019-04-16T12:49:47.619Z,37.20
2019-04-16T12:52:25.251Z,37.50
2019-04-16T12:54:59.344Z,37.00
2019-04-16T12:57:33.787Z,37.90
2019-04-16T13:00:10.893Z,36.60
2019-04-16T13:02:52.072Z,36.50
2019-04-16T13:05:39.493Z,36.30
2019-04-16T13:08:17.227Z,36.20
2019-04-16T13:11:00.956Z,38.50
2019-04-16T13:13:49.397Z,37.00
2019-04-16T13:16:27.311Z,36.80
2019-04-16T13:19:08.162Z,36.80
2019-04-16T13:21:40.119Z,38.70
2019-04-16T13:24:12.028Z,37.40
2019-04-16T13:26:43.958Z,37.00
2019-04-16T13:29:17.258Z,36.90
2019-04-16T13:31:47.794Z,37.60
2019-04-16T13:34:19.347Z,37.90
2019-04-16T13:36:51.605Z,38.70
2019-04-16T13:39:26.160Z,38.40
2019-04-16T13:41:56.742Z,38.20
2019-04-16T13:44:40.382Z,39.30
2019-04-16T13:47:09.723Z,39.70
2019-04-16T13:49:44.605Z,39.00
2019-04-16T13:52:17.084Z,39.60
2019-04-16T13:54:55.324Z,39.70
2019-04-16T13:57:30.041Z,40.00
2019-04-16T14:00:05.656Z,39.90
2019-04-16T14:02:47.720Z,40.30
2019-04-16T14:05:19.252Z,40.50
2019-04-16T14:07:49.609Z,40.60
2019-04-16T14:10:19.968Z,40.50
2019-04-16T14:12:50.243Z,41.40
2019-04-16T14:15:31.789Z,41.10
2019-04-16T14:17:59.064Z,41.90
2019-04-16T14:20:26.376Z,42.60
2019-04-16T14:22:56.669Z,43.10
2019-04-16T14:25:26.941Z,43.30
2019-04-16T14:28:02.070Z,43.80
2019-04-16T14:30:31.173Z,44.60
2019-04-16T14:33:01.458Z,45.00
2019-04-16T14:35:34.043Z,45.80
2019-04-16T14:38:04.479Z,45.80
2019-04-16T14:40:34.839Z,46.60
2019-04-16T14:43:05.200Z,46.80
2019-04-16T14:45:57.711Z,47.10
2019-04-16T14:48:16.043Z,46.90
2019-04-16T14:50:46.323Z,46.40
2019-04-16T14:53:18.253Z,46.00
2019-04-16T14:55:59.833Z,45.00
2019-04-16T14:58:26.423Z,44.10
2019-04-16T15:01:13.791Z,43.80
2019-04-16T15:04:00.748Z,44.20
2019-04-16T15:06:44.473Z,44.20
2019-04-16T15:09:32.670Z,43.00
2019-04-16T15:12:08.492Z,42.80
2019-04-16T15:14:40.690Z,43.00
2019-04-16T15:17:19.176Z,43.10
2019-04-16T15:19:53.763Z,43.40
2019-04-16T15:22:43.358Z,42.90
2019-04-16T15:25:15.280Z,43.60
2019-04-16T15:27:49.899Z,43.50
2019-04-16T15:30:38.032Z,42.90
2019-04-16T15:33:24.901Z,43.30
2019-04-16T15:36:08.989Z,43.70
2019-04-16T15:38:40.911Z,44.10
2019-04-16T15:41:27.933Z,44.70
2019-04-16T15:44:16.072Z,45.00
2019-04-16T15:46:48.455Z,45.70
2019-04-16T15:49:24.136Z,46.40
2019-04-16T15:51:58.899Z,47.00
2019-04-16T15:54:33.663Z,47.20
2019-04-16T15:57:17.751Z,47.60
2019-04-16T16:00:07.839Z,47.40
2019-04-16T16:02:45.599Z,46.90
2019-04-16T16:05:27.291Z,47.20
2019-04-16T16:08:15.358Z,47.80
2019-04-16T16:10:53.479Z,47.70
2019-04-16T16:13:26.532Z,47.60
2019-04-16T16:15:55.928Z,48.30
2019-04-16T16:18:26.778Z,48.60
2019-04-16T16:20:57.215Z,48.90
2019-04-16T16:23:32.748Z,49.10
2019-04-16T16:25:59.419Z,49.70
2019-04-16T16:28:29.789Z,50.50
2019-04-16T16:31:00.402Z,51.00
2019-04-16T16:33:30.635Z,51.10
2019-04-16T16:36:00.931Z,51.30
2019-04-16T16:38:31.217Z,51.60
2019-04-16T16:41:01.504Z,52.10
2019-04-16T16:43:31.786Z,52.20
2019-04-16T16:46:18.731Z,52.40
2019-04-16T16:48:50.628Z,52.40
2019-04-16T16:51:23.007Z,51.80
2019-04-16T16:54:00.874Z,51.90
2019-04-16T16:56:49.213Z,52.10
2019-04-16T16:59:23.644Z,51.90
2019-04-16T17:02:08.595Z,53.20
2019-04-16T17:04:38.519Z,52.10
2019-04-16T17:07:09.182Z,52.70
2019-04-16T17:09:39.463Z,52.50
2019-04-16T17:12:09.757Z,52.60
2019-04-16T17:14:40.030Z,52.70
2019-04-16T17:17:14.704Z,53.20
2019-04-16T17:19:42.313Z,53.50
2019-04-16T17:22:14.650Z,53.00
2019-04-16T17:24:44.985Z,53.50
2019-04-16T17:27:15.276Z,53.70
2019-04-16T17:29:46.584Z,54.40
2019-04-16T17:32:17.622Z,54.70
2019-04-16T17:34:48.228Z,54.80
2019-04-16T17:37:21.395Z,55.10
2019-04-16T17:39:54.784Z,55.70
2019-04-16T17:42:26.714Z,55.90
2019-04-16T17:45:14.479Z,56.50
2019-04-16T17:48:05.424Z,56.80
2019-04-16T17:50:39.565Z,56.80
2019-04-16T17:53:15.906Z,56.80
2019-04-16T17:55:47.374Z,56.70
2019-04-16T17:58:19.301Z,56.70
2019-04-16T18:00:51.231Z,56.80
2019-04-16T18:03:37.246Z,56.90
2019-04-16T18:06:17.529Z,56.80
2019-04-16T18:08:49.462Z,56.90
2019-04-16T18:11:27.390Z,57.30
2019-04-16T18:14:08.821Z,57.60
2019-04-16T18:16:54.326Z,58.00
2019-04-16T18:19:39.259Z,58.20
2019-04-16T18:22:15.875Z,59.30
2019-04-16T18:24:53.903Z,61.00
2019-04-16T18:27:29.226Z,62.40
2019-04-16T18:30:08.673Z,63.30
2019-04-16T18:32:58.893Z,64.50
2019-04-16T18:35:33.535Z,65.40
2019-04-16T18:38:22.225Z,66.20
2019-04-16T18:41:11.211Z,66.80
2019-04-16T18:43:59.236Z,67.60
2019-04-16T18:46:31.160Z,68.30
2019-04-16T18:49:03.090Z,68.90
2019-04-16T18:51:34.285Z,69.80
2019-04-16T18:54:05.057Z,69.90
2019-04-16T18:56:35.333Z,70.20
2019-04-16T18:59:05.687Z,70.60
2019-04-16T19:01:37.874Z,70.90
2019-04-16T19:04:08.153Z,71.50
2019-04-16T19:06:38.725Z,71.30
2019-04-16T19:09:09.216Z,71.30
2019-04-16T19:11:39.485Z,71.20
2019-04-16T19:14:12.540Z,71.60
2019-04-16T19:16:41.750Z,71.80
2019-04-16T19:19:12.034Z,72.00
2019-04-16T19:21:42.884Z,72.60
2019-04-16T19:24:13.454Z,72.10
2019-04-16T19:26:43.742Z,72.60
2019-04-16T19:29:14.835Z,72.70
2019-04-16T19:31:46.103Z,73.00
2019-04-16T19:34:16.384Z,73.60
2019-04-16T19:36:46.659Z,73.90
2019-04-16T19:39:17.078Z,74.20
2019-04-16T19:41:47.410Z,74.70
2019-04-16T19:44:17.691Z,74.60
2019-04-16T19:46:52.665Z,75.30
2019-04-16T19:49:20.101Z,75.70
2019-04-16T19:51:50.381Z,76.50
2019-04-16T19:54:20.928Z,75.90
2019-04-16T19:56:52.018Z,76.20
2019-04-16T19:59:22.603Z,76.70
2019-04-16T20:01:55.980Z,76.90
2019-04-16T20:04:24.876Z,76.90
2019-04-16T20:07:00.005Z,77.40
2019-04-16T20:09:27.162Z,77.60
2019-04-16T20:11:57.403Z,78.00
2019-04-16T20:14:27.685Z,78.00
2019-04-16T20:16:57.982Z,78.60
2019-04-16T20:19:28.468Z,79.00
2019-04-16T20:21:59.469Z,79.10
2019-04-16T20:24:29.736Z,79.50
2019-04-16T20:27:04.877Z,79.40
2019-04-16T20:29:32.059Z,79.90
2019-04-16T20:32:02.391Z,80.00
2019-04-16T20:34:32.667Z,80.30
2019-04-16T20:37:02.950Z,80.30
2019-04-16T20:39:33.250Z,80.30
2019-04-16T20:42:03.712Z,80.70
2019-04-16T20:44:34.316Z,80.50
2019-04-16T20:47:07.913Z,80.70
2019-04-16T20:49:36.968Z,80.90
2019-04-16T20:52:07.320Z,81.10
2019-04-16T20:54:44.029Z,81.60
2019-04-16T20:57:11.415Z,82.20
2019-04-16T20:59:41.960Z,82.40
2019-04-16T21:02:12.592Z,84.50
2019-04-16T21:04:44.337Z,86.20
2019-04-16T21:07:15.477Z,87.70
2019-04-16T21:09:45.864Z,88.90
2019-04-16T21:12:16.149Z,90.20
2019-04-16T21:14:46.429Z,90.50
2019-04-16T21:17:17.841Z,90.90
2019-04-16T21:19:48.181Z,91.00
2019-04-16T21:22:19.234Z,91.70
2019-04-16T21:24:49.576Z,91.90
2019-04-16T21:27:19.853Z,92.50
2019-04-16T21:29:50.133Z,92.90
2019-04-16T21:32:24.854Z,93.00
2019-04-16T21:35:06.184Z,93.30
2019-04-16T21:37:55.985Z,93.10
2019-04-16T21:40:26.221Z,93.20
2019-04-16T21:42:56.488Z,93.80
2019-04-16T21:45:26.769Z,93.60
2019-04-16T21:47:57.048Z,93.60
2019-04-16T21:50:27.329Z,93.60
2019-04-16T21:52:57.598Z,93.60
2019-04-16T21:55:27.879Z,93.70
2019-04-16T21:57:58.327Z,93.70
2019-04-16T22:00:40.137Z,93.90
2019-04-16T22:03:15.169Z,94.00
2019-04-16T22:05:48.141Z,94.10
2019-04-16T22:08:17.417Z,94.40
2019-04-16T22:10:47.698Z,94.60
2019-04-16T22:13:19.481Z,94.40
2019-04-16T22:15:50.370Z,94.40
2019-04-16T22:18:20.912Z,94.50
2019-04-16T22:20:51.193Z,94.50
2019-04-16T22:23:21.473Z,94.60
2019-04-16T22:25:51.749Z,94.60
2019-04-16T22:28:22.029Z,94.50
2019-04-16T22:30:52.361Z,94.60
2019-04-16T22:33:22.583Z,94.70
2019-04-16T22:35:54.199Z,94.80
2019-04-16T22:38:25.752Z,94.90
2019-04-16T22:40:58.014Z,94.80
2019-04-16T22:43:30.292Z,95.10
2019-04-16T22:46:02.386Z,95.20
2019-04-16T22:48:32.561Z,95.30
2019-04-16T22:51:02.841Z,95.20
2019-04-16T22:53:33.124Z,95.10
2019-04-16T22:56:03.397Z,95.20
2019-04-16T22:58:49.901Z,95.50
2019-04-16T23:01:22.231Z,95.30
2019-04-16T23:03:53.423Z,95.30
2019-04-16T23:06:24.670Z,95.20
2019-04-16T23:08:55.170Z,95.20
2019-04-16T23:11:25.453Z,95.40
2019-04-16T23:13:55.803Z,95.10
2019-04-16T23:16:26.096Z,95.20
2019-04-16T23:18:56.352Z,95.00
2019-04-16T23:21:26.636Z,95.00
2019-04-16T23:23:57.009Z,95.10
2019-04-16T23:26:32.141Z,95.10
2019-04-16T23:28:59.256Z,94.80
2019-04-16T23:31:29.531Z,94.90
2019-04-16T23:34:04.575Z,94.60
2019-04-16T23:36:31.784Z,94.90
2019-04-16T23:39:04.664Z,95.00
2019-04-16T23:41:34.108Z,95.30
2019-04-16T23:44:15.057Z,95.30
2019-04-16T23:47:02.288Z,95.70
2019-04-16T23:49:36.757Z,95.70
2019-04-16T23:52:20.802Z,95.80
2019-04-16T23:54:55.463Z,95.90
2019-04-16T23:57:43.724Z,96.10
